Time;durP1;ratioP1;P1;durP2;ratioP2;P2;SDS_P1;SDS_P2;PMS_P1;PMS_P2;Temp;Humidity;BMP_temperature;BMP_pressure;BME280_temperature;BME280_humidity;BME280_pressure;Samples;Min_cycle;Max_cycle;Signal;HPM_P1;HPM_P2
2021/05/05 00:03:51;;;;;;;5.15;3.03;;;;;;;;;;8356566;28;20469;-70
2021/05/05 00:07:56;;;;;;;7.07;3.17;;;;;;;;;;8339114;28;20459;-70
2021/05/05 00:12:00;;;;;;;5.50;2.50;;;;;;;;;;8356077;28;20492;-69
2021/05/05 00:16:06;;;;;;;5.68;2.30;;;;;;;;;;8356583;28;20051;-69
2021/05/05 00:20:11;;;;;;;6.53;2.17;;;;;;;;;;8356668;28;20449;-70
2021/05/05 00:24:16;;;;;;;8.77;2.53;;;;;;;;;;8356717;28;20370;-70
2021/05/05 00:28:20;;;;;;;3.92;2.33;;;;;;;;;;8355943;28;20374;-69
2021/05/05 00:32:25;;;;;;;3.42;2.00;;;;;;;;;;8339043;28;20480;-69
2021/05/05 00:36:29;;;;;;;4.93;2.42;;;;;;;;;;8356965;28;20367;-70
2021/05/05 00:40:33;;;;;;;6.00;2.70;;;;;;;;;;8357229;28;20394;-71
2021/05/05 00:44:38;;;;;;;6.70;3.38;;;;;;;;;;8355487;28;20408;-70
2021/05/05 00:48:43;;;;;;;8.13;3.40;;;;;;;;;;8355718;28;20044;-69
2021/05/05 00:52:47;;;;;;;5.45;2.45;;;;;;;;;;8357590;28;20422;-70
2021/05/05 00:56:52;;;;;;;6.43;2.97;;;;;;;;;;8356433;28;20457;-70
2021/05/05 01:00:57;;;;;;;5.68;2.80;;;;;;;;;;8319827;28;20332;-70
2021/05/05 01:05:03;;;;;;;5.70;3.15;;;;;;;;;;8316525;28;20467;-70
2021/05/05 01:09:06;;;;;;;6.50;3.30;;;;;;;;;;8322163;28;20359;-70
2021/05/05 01:13:13;;;;;;;11.88;5.55;;;;;;;;;;8322410;28;20356;-70
2021/05/05 01:17:18;;;;;;;6.05;3.35;;;;;;;;;;8327817;28;20370;-71
2021/05/05 01:21:24;;;;;;;26.40;7.93;;;;;;;;;;8294177;28;20454;-70
2021/05/05 01:25:29;;;;;;;23.98;9.07;;;;;;;;;;8310529;28;20374;-70
2021/05/05 01:29:39;;;;;;;17.67;6.60;;;;;;;;;;8309815;28;20402;-69
2021/05/05 01:33:44;;;;;;;7.95;3.25;;;;;;;;;;8328820;28;20443;-70
2021/05/05 01:37:49;;;;;;;9.00;4.00;;;;;;;;;;8310678;28;20447;-69
2021/05/05 01:41:55;;;;;;;7.82;3.22;;;;;;;;;;8310433;28;20378;-69
2021/05/05 01:46:00;;;;;;;8.82;2.53;;;;;;;;;;8330203;28;20404;-69
2021/05/05 01:50:07;;;;;;;7.65;3.47;;;;;;;;;;8310321;28;20481;-69
2021/05/05 01:54:12;;;;;;;7.75;3.65;;;;;;;;;;8327316;28;20351;-69
2021/05/05 01:58:17;;;;;;;6.63;2.97;;;;;;;;;;8328118;28;20589;-68
2021/05/05 02:02:26;;;;;;;5.18;2.75;;;;;;;;;;8325268;28;20459;-70
2021/05/05 02:06:31;;;;;;;4.15;2.25;;;;;;;;;;8327364;28;20466;-68
2021/05/05 02:10:48;;;;;;;4.35;2.08;;;;;;;;;;8310317;28;20052;-68
2021/05/05 02:14:53;;;;;;;4.88;2.17;;;;;;;;;;8308687;28;20047;-69
2021/05/05 02:18:57;;;;;;;4.63;2.13;;;;;;;;;;8309461;28;20485;-68
2021/05/05 02:23:02;;;;;;;6.05;2.85;;;;;;;;;;8327937;28;20386;-68
2021/05/05 02:27:09;;;;;;;6.22;2.42;;;;;;;;;;8309656;28;20079;-69
2021/05/05 02:31:15;;;;;;;4.35;2.05;;;;;;;;;;8325058;28;20093;-68
2021/05/05 02:35:21;;;;;;;6.85;2.70;;;;;;;;;;8326343;28;20070;-69
2021/05/05 02:39:29;;;;;;;6.03;2.60;;;;;;;;;;8325850;28;20494;-68
2021/05/05 02:43:34;;;;;;;7.82;2.53;;;;;;;;;;8307758;28;20393;-69
2021/05/05 02:47:40;;;;;;;8.70;3.38;;;;;;;;;;8308094;28;20463;-68
2021/05/05 02:51:44;;;;;;;4.65;2.50;;;;;;;;;;8308046;28;20500;-69
2021/05/05 02:55:49;;;;;;;8.18;2.15;;;;;;;;;;8325848;28;20465;-68
2021/05/05 02:59:54;;;;;;;5.35;2.92;;;;;;;;;;8324098;28;20045;-68
2021/05/05 03:03:58;;;;;;;7.15;2.67;;;;;;;;;;8325275;28;20478;-68
2021/05/05 03:08:04;;;;;;;6.70;2.70;;;;;;;;;;8325128;28;20047;-68
2021/05/05 03:12:09;;;;;;;5.25;2.75;;;;;;;;;;8325421;28;20551;-68
2021/05/05 03:16:13;;;;;;;6.90;3.05;;;;;;;;;;8325209;28;20459;-68
2021/05/05 03:20:17;;;;;;;8.68;3.40;;;;;;;;;;8323702;28;20044;-68
2021/05/05 03:24:22;;;;;;;12.70;3.20;;;;;;;;;;8325311;28;20067;-68
2021/05/05 03:28:26;;;;;;;7.70;2.90;;;;;;;;;;8323821;28;20529;-68
2021/05/05 03:32:31;;;;;;;7.28;2.30;;;;;;;;;;8325479;28;20463;-69
2021/05/05 03:36:35;;;;;;;9.43;2.53;;;;;;;;;;8324564;28;20048;-69
2021/05/05 03:40:40;;;;;;;5.22;2.42;;;;;;;;;;8324434;28;20390;-69
2021/05/05 03:44:45;;;;;;;5.40;2.63;;;;;;;;;;8325385;28;20386;-69
2021/05/05 03:48:50;;;;;;;10.32;2.83;;;;;;;;;;8324288;28;21109;-69
2021/05/05 03:52:54;;;;;;;6.60;3.05;;;;;;;;;;8322895;28;20450;-70
2021/05/05 03:56:59;;;;;;;9.25;3.22;;;;;;;;;;8323130;28;20070;-70
2021/05/05 04:01:03;;;;;;;4.68;2.30;;;;;;;;;;8324048;28;20577;-69
2021/05/05 04:05:09;;;;;;;7.90;3.05;;;;;;;;;;8306746;28;20348;-68
2021/05/05 04:09:13;;;;;;;6.78;2.20;;;;;;;;;;8323407;28;20074;-70
2021/05/05 04:13:18;;;;;;;6.15;2.15;;;;;;;;;;8326001;28;20074;-71
2021/05/05 04:17:40;;;;;;;5.07;2.03;;;;;;;;;;8323634;28;20475;-70
2021/05/05 04:22:04;;;;;;;10.20;2.80;;;;;;;;;;8322323;28;20492;-69
2021/05/05 04:26:27;;;;;;;3.65;2.42;;;;;;;;;;8308201;28;20039;-69
2021/05/05 04:30:31;;;;;;;4.43;2.40;;;;;;;;;;8288293;28;20048;-70
2021/05/05 04:34:34;;;;;;;6.60;2.38;;;;;;;;;;8290826;28;20364;-68
2021/05/05 04:38:39;;;;;;;4.97;2.15;;;;;;;;;;8306051;28;20413;-68
2021/05/05 04:42:43;;;;;;;9.43;2.22;;;;;;;;;;8289881;28;20383;-68
2021/05/05 04:46:48;;;;;;;5.38;1.73;;;;;;;;;;8291900;28;20363;-68
2021/05/05 04:50:52;;;;;;;4.88;2.25;;;;;;;;;;8292547;28;20466;-68
2021/05/05 04:54:56;;;;;;;3.28;1.98;;;;;;;;;;8297165;28;20348;-69
2021/05/05 04:59:02;;;;;;;4.80;2.47;;;;;;;;;;8295182;28;20448;-69
2021/05/05 05:03:06;;;;;;;4.35;2.83;;;;;;;;;;8297858;28;20366;-69
2021/05/05 05:07:11;;;;;;;5.78;2.83;;;;;;;;;;8296412;28;20390;-70
2021/05/05 05:11:15;;;;;;;6.43;3.00;;;;;;;;;;8297948;28;20512;-69
2021/05/05 05:15:18;;;;;;;9.18;2.65;;;;;;;;;;8295288;28;20444;-69
2021/05/05 05:19:23;;;;;;;5.63;3.03;;;;;;;;;;8294854;28;20345;-69
2021/05/05 05:23:27;;;;;;;8.35;3.28;;;;;;;;;;8297258;28;20048;-69
2021/05/05 05:27:32;;;;;;;9.27;2.90;;;;;;;;;;8295123;28;20505;-68
2021/05/05 05:31:36;;;;;;;10.15;3.05;;;;;;;;;;8325950;28;20378;-69
2021/05/05 05:35:41;;;;;;;6.07;3.03;;;;;;;;;;8330092;28;20524;-69
2021/05/05 05:39:46;;;;;;;6.80;3.10;;;;;;;;;;8327906;28;20510;-69
2021/05/05 05:43:50;;;;;;;6.63;3.08;;;;;;;;;;8327343;28;20477;-69
2021/05/05 05:47:55;;;;;;;6.97;3.17;;;;;;;;;;8327093;28;20481;-70
2021/05/05 05:51:59;;;;;;;8.65;3.30;;;;;;;;;;8310159;28;20368;-69
2021/05/05 05:56:04;;;;;;;6.03;2.75;;;;;;;;;;8328902;28;20481;-69
2021/05/05 06:00:16;;;;;;;6.63;2.67;;;;;;;;;;8328632;28;20576;-71
2021/05/05 06:04:21;;;;;;;8.00;3.08;;;;;;;;;;8329526;28;20052;-69
2021/05/05 06:08:26;;;;;;;6.70;2.85;;;;;;;;;;8328590;28;20041;-68
2021/05/05 06:12:30;;;;;;;6.53;3.08;;;;;;;;;;8328584;28;20490;-71
2021/05/05 06:16:34;;;;;;;6.15;2.50;;;;;;;;;;8329897;28;20362;-69
2021/05/05 06:20:39;;;;;;;3.72;1.65;;;;;;;;;;8329123;28;20464;-69
2021/05/05 06:24:44;;;;;;;3.15;1.50;;;;;;;;;;8311111;28;20397;-69
2021/05/05 06:28:49;;;;;;;4.45;1.88;;;;;;;;;;8309175;28;20351;-70
2021/05/05 06:32:53;;;;;;;3.88;1.70;;;;;;;;;;8327400;28;20451;-69
2021/05/05 06:37:03;;;;;;;2.35;1.58;;;;;;;;;;8330436;28;20494;-69
2021/05/05 06:41:07;;;;;;;3.42;1.45;;;;;;;;;;8327461;28;20528;-69
2021/05/05 06:45:12;;;;;;;6.75;1.80;;;;;;;;;;8327970;28;20471;-73
2021/05/05 06:49:17;;;;;;;11.75;3.90;;;;;;;;;;8291790;28;20366;-69
2021/05/05 06:53:21;;;;;;;6.85;2.42;;;;;;;;;;8326010;28;20048;-69
2021/05/05 06:57:26;;;;;;;7.68;3.08;;;;;;;;;;8326859;28;20425;-69
2021/05/05 07:01:30;;;;;;;8.85;3.75;;;;;;;;;;8327605;28;20060;-69
2021/05/05 07:05:35;;;;;;;10.38;4.47;;;;;;;;;;8310533;28;20044;-69
2021/05/05 07:09:39;;;;;;;4.20;2.17;;;;;;;;;;8325157;28;20358;-69
2021/05/05 07:13:44;;;;;;;9.93;3.35;;;;;;;;;;8309201;28;20378;-68
2021/05/05 07:17:52;;;;;;;2.38;1.52;;;;;;;;;;8327258;28;20386;-68
2021/05/05 07:21:56;;;;;;;4.85;1.80;;;;;;;;;;8326163;28;20377;-69
2021/05/05 07:26:00;;;;;;;5.25;2.53;;;;;;;;;;8326567;28;20070;-69
2021/05/05 07:30:10;;;;;;;4.88;1.92;;;;;;;;;;8324742;28;20368;-72
2021/05/05 07:34:15;;;;;;;2.90;1.60;;;;;;;;;;8307820;28;20386;-69
2021/05/05 07:47:13;;;;;;;3.13;1.77;;;;;;;;;;8326061;28;20478;-69
2021/05/05 07:51:19;;;;;;;5.38;2.17;;;;;;;;;;8325579;28;20412;-69
2021/05/05 07:55:21;;;;;;;5.07;2.10;;;;;;;;;;8289794;28;20066;-69
2021/05/05 07:59:25;;;;;;;3.28;1.67;;;;;;;;;;8324948;28;20492;-69
2021/05/05 08:03:29;;;;;;;5.50;1.70;;;;;;;;;;8325525;28;20382;-68
2021/05/05 08:07:33;;;;;;;4.07;1.80;;;;;;;;;;8323967;28;20521;-71
2021/05/05 08:11:38;;;;;;;7.40;1.88;;;;;;;;;;8307066;28;20382;-69
2021/05/05 08:15:42;;;;;;;2.20;1.35;;;;;;;;;;8324377;28;20466;-69
2021/05/05 08:19:48;;;;;;;4.80;1.88;;;;;;;;;;8323745;28;20468;-69
2021/05/05 08:23:52;;;;;;;23.30;15.30;;;;;;;;;;8323187;28;20474;-69
2021/05/05 08:27:56;;;;;;;8.38;4.38;;;;;;;;;;8324712;28;20482;-69
2021/05/05 08:32:03;;;;;;;3.22;1.48;;;;;;;;;;8325745;28;20081;-70
2021/05/05 08:36:08;;;;;;;12.60;4.03;;;;;;;;;;8309497;28;20493;-70
2021/05/05 08:40:12;;;;;;;15.30;5.25;;;;;;;;;;8325565;28;20449;-69
2021/05/05 08:44:17;;;;;;;11.07;2.95;;;;;;;;;;8324544;28;20052;-69
2021/05/05 08:48:22;;;;;;;22.50;6.70;;;;;;;;;;8305076;28;20467;-69
2021/05/05 08:52:27;;;;;;;35.85;11.73;;;;;;;;;;8323501;28;20047;-68
2021/05/05 08:56:35;;;;;;;29.42;12.15;;;;;;;;;;8324299;28;20070;-68
2021/05/05 09:00:39;;;;;;;11.93;5.70;;;;;;;;;;8324119;28;20351;-69
2021/05/05 09:04:59;;;;;;;20.15;8.45;;;;;;;;;;8322894;28;20074;-68
2021/05/05 09:09:04;;;;;;;9.50;2.60;;;;;;;;;;8323219;28;20451;-70
2021/05/05 09:13:08;;;;;;;7.75;4.00;;;;;;;;;;8324911;28;20078;-68
2021/05/05 09:17:24;;;;;;;7.30;2.50;;;;;;;;;;8323715;28;20048;-69
2021/05/05 09:21:48;;;;;;;8.95;4.40;;;;;;;;;;8305868;28;20048;-67
2021/05/05 09:25:53;;;;;;;5.85;2.85;;;;;;;;;;8307004;28;20362;-69
2021/05/05 09:29:57;;;;;;;4.15;1.90;;;;;;;;;;8322619;28;20465;-69
2021/05/05 09:34:03;;;;;;;2.90;1.85;;;;;;;;;;8322062;28;20382;-69
2021/05/05 09:38:11;;;;;;;5.88;2.13;;;;;;;;;;8311448;28;20408;-68
2021/05/05 09:42:18;;;;;;;5.38;2.90;;;;;;;;;;8310986;28;20646;-68
2021/05/05 09:46:44;;;;;;;4.97;3.08;;;;;;;;;;8329234;28;20370;-68
2021/05/05 09:50:57;;;;;;;5.43;3.33;;;;;;;;;;8328868;28;20368;-69
2021/05/05 09:55:18;;;;;;;6.10;3.20;;;;;;;;;;8310365;28;20482;-68
2021/05/05 09:59:23;;;;;;;6.35;3.28;;;;;;;;;;8330950;28;20316;-68
2021/05/05 10:03:36;;;;;;;5.38;1.73;;;;;;;;;;8328214;28;20481;-70
2021/05/05 10:07:51;;;;;;;4.82;2.33;;;;;;;;;;8329518;28;20402;-69
2021/05/05 10:11:56;;;;;;;27.25;9.18;;;;;;;;;;8325185;28;20060;-69
2021/05/05 10:16:02;;;;;;;12.60;5.90;;;;;;;;;;8326918;28;20363;-68
2021/05/05 10:20:06;;;;;;;18.17;8.40;;;;;;;;;;8308915;28;20439;-70
2021/05/05 10:24:11;;;;;;;6.68;2.50;;;;;;;;;;8325998;28;20356;-68
2021/05/05 10:28:16;;;;;;;13.10;4.30;;;;;;;;;;8308184;28;20378;-70
2021/05/05 10:32:30;;;;;;;16.15;7.03;;;;;;;;;;8324114;28;20471;-69
2021/05/05 10:36:39;;;;;;;8.70;2.97;;;;;;;;;;8329021;28;20370;-69
2021/05/05 10:40:44;;;;;;;7.70;3.10;;;;;;;;;;8326351;28;20442;-69
2021/05/05 10:44:58;;;;;;;3.92;2.25;;;;;;;;;;8327819;28;20052;-69
2021/05/05 10:49:15;;;;;;;6.72;2.42;;;;;;;;;;8310037;28;20356;-69
2021/05/05 10:53:28;;;;;;;3.22;1.80;;;;;;;;;;8327496;28;20060;-68
2021/05/05 10:57:33;;;;;;;3.22;2.25;;;;;;;;;;8328362;28;20451;-69
2021/05/05 11:01:46;;;;;;;3.65;1.88;;;;;;;;;;8327958;28;20370;-69
2021/05/05 11:05:50;;;;;;;7.95;2.67;;;;;;;;;;8310204;28;20386;-70
2021/05/05 11:09:55;;;;;;;4.40;2.13;;;;;;;;;;8327188;28;20374;-69
2021/05/05 11:13:59;;;;;;;5.45;2.30;;;;;;;;;;8326070;28;20066;-69
2021/05/05 11:18:26;;;;;;;5.88;2.40;;;;;;;;;;8326622;28;20344;-69
2021/05/05 11:22:33;;;;;;;3.20;1.67;;;;;;;;;;8325295;28;20358;-69
2021/05/05 11:26:45;;;;;;;8.63;2.38;;;;;;;;;;8309019;28;20455;-68
2021/05/05 11:30:52;;;;;;;4.20;2.50;;;;;;;;;;8326442;28;20443;-70
2021/05/05 11:34:57;;;;;;;3.45;2.08;;;;;;;;;;8309791;28;20462;-68
2021/05/05 11:39:02;;;;;;;4.05;2.03;;;;;;;;;;8325250;28;20485;-68
2021/05/05 11:43:21;;;;;;;3.88;2.00;;;;;;;;;;8324096;28;20363;-69
2021/05/05 11:47:34;;;;;;;3.45;1.60;;;;;;;;;;8326323;28;20048;-69
2021/05/05 11:51:38;;;;;;;4.35;1.85;;;;;;;;;;8323474;28;20047;-68
2021/05/05 11:55:42;;;;;;;3.05;2.00;;;;;;;;;;8323338;28;20400;-68
2021/05/05 11:59:47;;;;;;;4.07;2.00;;;;;;;;;;8323562;28;20462;-68
2021/05/05 12:03:52;;;;;;;3.75;1.73;;;;;;;;;;8324387;28;20455;-69
2021/05/05 12:08:05;;;;;;;2.75;1.65;;;;;;;;;;8323857;28;20066;-68
2021/05/05 12:12:16;;;;;;;3.95;1.40;;;;;;;;;;8323241;28;20483;-69
2021/05/05 12:16:27;;;;;;;3.03;1.70;;;;;;;;;;8307715;28;20614;-68
2021/05/05 12:20:31;;;;;;;4.72;2.10;;;;;;;;;;8304929;28;20405;-69
2021/05/05 12:24:35;;;;;;;4.55;2.80;;;;;;;;;;8324418;28;20366;-69
2021/05/05 12:28:40;;;;;;;3.72;1.70;;;;;;;;;;8322748;28;20489;-69
2021/05/05 12:32:49;;;;;;;2.47;1.40;;;;;;;;;;8322693;28;20524;-69
2021/05/05 12:36:55;;;;;;;1.92;1.10;;;;;;;;;;8308271;28;20373;-68
2021/05/05 12:41:05;;;;;;;1.45;0.90;;;;;;;;;;8322869;28;20372;-69
2021/05/05 12:45:16;;;;;;;2.55;0.50;;;;;;;;;;8322577;28;20052;-68
2021/05/05 12:49:25;;;;;;;1.40;0.90;;;;;;;;;;8308300;28;20525;-70
2021/05/05 12:54:02;;;;;;;2.40;1.02;;;;;;;;;;8324688;28;20378;-69
2021/05/05 12:58:17;;;;;;;2.53;1.17;;;;;;;;;;8325051;28;20370;-68
2021/05/05 13:02:27;;;;;;;4.05;1.40;;;;;;;;;;8324402;28;20067;-68
2021/05/05 13:06:48;;;;;;;1.85;1.10;;;;;;;;;;8305904;28;20354;-69
2021/05/05 13:10:52;;;;;;;2.17;1.20;;;;;;;;;;8323801;28;20378;-70
2021/05/05 13:15:06;;;;;;;2.28;1.10;;;;;;;;;;8310577;28;20386;-71
2021/05/05 13:33:02;;;;;;;1.98;1.23;;;;;;;;;;8223511;28;20476;-69
2021/05/05 13:37:10;;;;;;;2.80;1.10;;;;;;;;;;8261004;28;20053;-70
2021/05/05 13:41:15;;;;;;;3.83;1.60;;;;;;;;;;8262087;28;20346;-69
2021/05/05 13:45:19;;;;;;;4.53;1.92;;;;;;;;;;8262976;28;20075;-69
2021/05/05 13:49:29;;;;;;;4.15;1.55;;;;;;;;;;8263192;28;20360;-69
2021/05/05 13:53:32;;;;;;;2.47;1.30;;;;;;;;;;8261576;28;20072;-70
2021/05/05 13:57:37;;;;;;;2.92;1.42;;;;;;;;;;8259104;28;20482;-70
2021/05/05 14:01:42;;;;;;;4.22;2.33;;;;;;;;;;8261342;28;20383;-71
2021/05/05 14:05:50;;;;;;;4.60;2.50;;;;;;;;;;8261106;28;20360;-71
2021/05/05 14:09:54;;;;;;;3.92;2.67;;;;;;;;;;8259533;28;20360;-71
2021/05/05 14:13:59;;;;;;;4.97;2.50;;;;;;;;;;8261155;28;20419;-71
2021/05/05 14:18:04;;;;;;;8.40;3.50;;;;;;;;;;8261078;28;20411;-71
2021/05/05 14:22:09;;;;;;;20.65;13.15;;;;;;;;;;8260871;28;20056;-70
2021/05/05 14:26:16;;;;;;;11.20;5.50;;;;;;;;;;8260315;28;20049;-70
2021/05/05 14:30:22;;;;;;;22.80;10.85;;;;;;;;;;8296809;28;20401;-70
2021/05/05 14:34:27;;;;;;;25.27;14.60;;;;;;;;;;8328479;28;20412;-70
2021/05/05 14:38:33;;;;;;;19.88;11.88;;;;;;;;;;8326046;28;20052;-69
2021/05/05 14:42:42;;;;;;;16.98;9.30;;;;;;;;;;8309301;28;20075;-71
2021/05/05 14:51:17;;;;;;;23.80;12.30;;;;;;;;;;8326705;28;20450;-71
2021/05/05 14:55:21;;;;;;;23.23;12.07;;;;;;;;;;8325065;28;20078;-72
2021/05/05 14:59:26;;;;;;;15.50;10.13;;;;;;;;;;8307376;28;20383;-72
2021/05/05 15:03:31;;;;;;;16.45;8.18;;;;;;;;;;8325379;28;20463;-71
2021/05/05 15:07:36;;;;;;;15.02;8.23;;;;;;;;;;8324435;28;20478;-72
2021/05/05 15:16:33;;;;;;;14.98;8.32;;;;;;;;;;8323704;28;20504;-71
2021/05/05 15:29:32;;;;;;;13.30;7.20;;;;;;;;;;8323417;28;20048;-72
2021/05/05 15:34:06;;;;;;;14.45;8.55;;;;;;;;;;8323492;28;20399;-73
2021/05/05 15:38:14;;;;;;;26.27;11.77;;;;;;;;;;8306742;28;20493;-72
2021/05/05 15:42:19;;;;;;;15.30;6.82;;;;;;;;;;8323406;28;20472;-71
2021/05/05 15:46:26;;;;;;;25.58;11.95;;;;;;;;;;8306592;28;20036;-71
2021/05/05 15:50:32;;;;;;;27.17;12.23;;;;;;;;;;8306593;28;20374;-72
2021/05/05 15:54:36;;;;;;;28.02;12.18;;;;;;;;;;8322742;28;20482;-71
2021/05/05 15:58:43;;;;;;;29.40;13.40;;;;;;;;;;8323266;28;20409;-71
2021/05/05 16:03:14;;;;;;;27.75;12.77;;;;;;;;;;8306753;28;20471;-71
2021/05/05 16:12:00;;;;;;;29.50;15.20;;;;;;;;;;8324237;28;20466;-71
2021/05/05 16:16:06;;;;;;;20.63;11.13;;;;;;;;;;8321730;28;20466;-71
2021/05/05 16:20:14;;;;;;;34.55;16.63;;;;;;;;;;8322689;28;20489;-71
2021/05/05 16:54:51;;;;;;;18.27;10.75;;;;;;;;;;8329356;28;20389;-71
2021/05/05 16:59:31;;;;;;;18.77;9.77;;;;;;;;;;8330402;28;20467;-71
2021/05/05 17:08:06;;;;;;;17.15;8.50;;;;;;;;;;8329421;28;20363;-70
2021/05/05 17:12:10;;;;;;;19.58;12.20;;;;;;;;;;8329134;28;20414;-72
2021/05/05 17:16:15;;;;;;;30.00;16.42;;;;;;;;;;8328843;28;20490;-70
2021/05/05 17:20:31;;;;;;;17.27;8.98;;;;;;;;;;8311671;28;20343;-70
2021/05/05 17:24:37;;;;;;;26.25;10.95;;;;;;;;;;8310848;28;20370;-70
2021/05/05 17:28:53;;;;;;;20.67;8.48;;;;;;;;;;8328165;28;20481;-71
2021/05/05 17:46:20;;;;;;;19.88;9.10;;;;;;;;;;8312925;28;20078;-72
2021/05/05 18:13:05;;;;;;;23.98;11.43;;;;;;;;;;8327518;28;20043;-71
2021/05/05 18:17:11;;;;;;;23.45;9.77;;;;;;;;;;8296769;28;20489;-71
2021/05/05 18:21:25;;;;;;;26.98;10.25;;;;;;;;;;8295652;28;20452;-71
2021/05/05 18:25:42;;;;;;;62.53;27.70;;;;;;;;;;8277552;28;20482;-71
2021/05/05 18:29:48;;;;;;;24.88;10.27;;;;;;;;;;8291781;28;20474;-71
2021/05/05 18:33:51;;;;;;;32.03;12.52;;;;;;;;;;8294188;28;20485;-70
2021/05/05 18:37:56;;;;;;;37.40;15.30;;;;;;;;;;8293541;28;20475;-71
2021/05/05 18:42:04;;;;;;;18.40;9.95;;;;;;;;;;8275356;28;20127;-71
2021/05/05 19:17:18;;;;;;;18.77;10.32;;;;;;;;;;8281475;28;20475;-72
2021/05/05 21:17:11;;;;;;;49.42;27.10;;;;;;;;;;8225524;28;20384;-72
2021/05/05 22:01:18;;;;;;;30.42;16.60;;;;;;;;;;8294684;28;20422;-72
2021/05/05 22:54:20;;;;;;;20.42;11.15;;;;;;;;;;8259305;28;20349;-71
2021/05/05 23:16:13;;;;;;;22.60;10.52;;;;;;;;;;8260575;28;20486;-73
2021/05/05 23:29:06;;;;;;;22.98;9.68;;;;;;;;;;8264112;28;20483;-72
